Time;durP1;ratioP1;P1;durP2;ratioP2;P2;SDS_P1;SDS_P2;PMS_P1;PMS_P2;Temp;Humidity;BMP_temperature;BMP_pressure;BME280_temperature;BME280_humidity;BME280_pressure;Samples;Min_cycle;Max_cycle;Signal;HPM_P1;HPM_P2
2023/05/31 00:00:23;;;;;;;5.85;4.18;;;11.60;99.90;;;;;;4899553;28;20044;-76
2023/05/31 00:02:48;;;;;;;6.68;4.40;;;11.60;99.90;;;;;;4943864;28;20042;-75
2023/05/31 00:05:14;;;;;;;6.15;3.75;;;11.60;99.90;;;;;;4945073;28;20078;-76
2023/05/31 00:07:40;;;;;;;7.32;4.63;;;11.60;99.90;;;;;;4957165;28;20043;-74
2023/05/31 00:10:06;;;;;;;5.40;3.83;;;11.40;99.90;;;;;;4913254;28;20036;-76
2023/05/31 00:12:32;;;;;;;7.40;4.22;;;11.40;99.90;;;;;;4947816;28;20028;-76
2023/05/31 00:14:57;;;;;;;5.32;3.97;;;11.30;99.90;;;;;;4921263;28;20044;-77
2023/05/31 00:17:23;;;;;;;4.88;4.10;;;11.30;99.90;;;;;;4892586;29;20036;-77
2023/05/31 00:19:49;;;;;;;7.45;4.45;;;11.40;99.90;;;;;;4910948;28;20044;-78
2023/05/31 00:22:16;;;;;;;6.75;4.82;;;11.50;99.90;;;;;;4892639;28;20048;-77
2023/05/31 00:24:43;;;;;;;8.95;4.90;;;11.60;99.90;;;;;;4910304;28;20051;-76
2023/05/31 00:27:09;;;;;;;7.65;5.35;;;11.80;99.90;;;;;;4906982;28;20047;-75
2023/05/31 00:29:34;;;;;;;7.63;4.85;;;11.90;99.90;;;;;;4948721;28;20122;-78
2023/05/31 00:32:00;;;;;;;8.68;5.53;;;12.10;99.90;;;;;;4959152;28;20045;-80
2023/05/31 00:34:26;;;;;;;10.48;5.28;;;12.30;99.90;;;;;;4908059;29;20048;-77
2023/05/31 00:36:51;;;;;;;9.05;5.65;;;12.40;99.90;;;;;;4909505;29;20122;-75
2023/05/31 00:39:18;;;;;;;9.50;5.03;;;12.50;99.90;;;;;;4940821;28;21883;-76
2023/05/31 00:41:44;;;;;;;9.15;5.40;;;12.40;99.90;;;;;;4909709;29;20136;-75
2023/05/31 00:44:10;;;;;;;7.45;5.32;;;12.50;99.90;;;;;;4928479;28;20039;-75
2023/05/31 00:46:37;;;;;;;7.97;4.97;;;12.40;99.90;;;;;;4927195;29;20059;-74
2023/05/31 00:49:04;;;;;;;7.30;5.03;;;12.50;99.90;;;;;;4906921;29;20047;-75
2023/05/31 00:51:31;;;;;;;7.63;5.13;;;12.40;99.90;;;;;;4923794;28;20040;-77
2023/05/31 00:53:58;;;;;;;7.43;5.28;;;12.30;99.90;;;;;;4892369;28;20055;-75
2023/05/31 00:56:24;;;;;;;7.50;4.78;;;12.30;99.90;;;;;;4892481;28;20036;-77
2023/05/31 00:58:52;;;;;;;7.53;5.43;;;12.30;99.90;;;;;;4907361;29;20047;-76
2023/05/31 01:01:20;;;;;;;6.70;5.38;;;12.30;99.90;;;;;;4906626;29;20044;-77
2023/05/31 01:03:46;;;;;;;9.02;5.18;;;12.30;99.90;;;;;;4909518;29;20095;-75
2023/05/31 01:06:12;;;;;;;8.85;5.00;;;12.20;99.90;;;;;;4889758;29;20047;-77
2023/05/31 01:08:39;;;;;;;8.00;5.15;;;12.30;99.90;;;;;;4949553;28;20043;-77
2023/05/31 01:11:33;;;;;;;8.57;5.93;;;12.30;99.90;;;;;;4977596;28;20040;-76
2023/05/31 01:14:20;;;;;;;8.10;4.85;;;12.30;99.90;;;;;;4901863;29;20044;-76
2023/05/31 01:16:52;;;;;;;8.23;5.15;;;12.40;99.90;;;;;;4904529;29;20190;-76
2023/05/31 01:19:47;;;;;;;9.23;4.80;;;12.30;99.90;;;;;;4907310;29;20462;-74
2023/05/31 01:22:27;;;;;;;8.13;4.90;;;12.20;99.90;;;;;;4947951;28;20056;-74
2023/05/31 01:24:55;;;;;;;8.77;5.35;;;12.30;99.90;;;;;;4919707;29;20085;-74
2023/05/31 01:27:22;;;;;;;10.75;5.43;;;12.30;99.90;;;;;;4911872;29;20036;-76
2023/05/31 01:29:49;;;;;;;8.55;5.30;;;12.30;99.90;;;;;;4909915;28;20075;-75
2023/05/31 01:32:16;;;;;;;9.55;5.20;;;12.30;99.90;;;;;;4926669;29;20048;-78
2023/05/31 01:34:46;;;;;;;7.30;5.38;;;12.20;99.90;;;;;;4913914;28;20127;-79
2023/05/31 01:37:12;;;;;;;7.38;5.55;;;12.20;99.90;;;;;;4949646;28;20124;-77
2023/05/31 01:39:38;;;;;;;10.73;5.63;;;12.20;99.90;;;;;;4958294;28;20120;-77
2023/05/31 01:42:05;;;;;;;8.88;5.22;;;12.20;99.90;;;;;;4905777;29;20040;-77
2023/05/31 01:44:33;;;;;;;7.60;4.75;;;12.20;99.90;;;;;;4908904;29;20040;-75
2023/05/31 01:46:59;;;;;;;10.98;5.50;;;12.10;99.90;;;;;;4910352;29;20080;-76
2023/05/31 01:49:25;;;;;;;10.13;6.20;;;12.10;99.90;;;;;;4913864;28;20393;-76
2023/05/31 01:51:51;;;;;;;8.20;4.70;;;12.00;99.90;;;;;;4902940;28;20079;-77
2023/05/31 01:54:17;;;;;;;10.38;5.28;;;12.00;99.90;;;;;;4915341;29;20050;-76
2023/05/31 01:56:45;;;;;;;11.93;5.25;;;12.20;99.90;;;;;;4905593;29;20066;-76
2023/05/31 01:59:12;;;;;;;9.25;5.50;;;12.20;99.90;;;;;;4927017;29;20040;-76
2023/05/31 02:01:39;;;;;;;8.25;5.35;;;12.00;99.90;;;;;;4911139;29;20078;-76
2023/05/31 02:04:09;;;;;;;7.90;5.07;;;11.90;99.90;;;;;;4910757;28;20073;-78
2023/05/31 02:06:37;;;;;;;9.68;4.95;;;11.60;99.90;;;;;;4929807;28;20044;-76
2023/05/31 02:09:05;;;;;;;7.57;4.43;;;11.60;99.90;;;;;;4892979;28;20057;-77
2023/05/31 02:11:31;;;;;;;6.60;4.32;;;11.40;99.90;;;;;;4950477;28;20038;-76
2023/05/31 02:13:56;;;;;;;7.45;4.57;;;11.50;99.90;;;;;;4891501;28;20055;-77
2023/05/31 02:16:22;;;;;;;7.40;4.50;;;11.40;99.90;;;;;;4893689;29;20044;-78
2023/05/31 02:18:48;;;;;;;6.72;4.28;;;11.30;99.90;;;;;;4893839;28;20047;-78
2023/05/31 02:21:14;;;;;;;6.20;4.07;;;11.40;99.90;;;;;;4888020;28;20047;-77
2023/05/31 02:23:39;;;;;;;6.15;3.78;;;11.40;99.90;;;;;;4925627;28;20093;-78
2023/05/31 02:26:05;;;;;;;8.13;5.03;;;11.40;99.90;;;;;;4894443;28;20050;-76
2023/05/31 02:28:31;;;;;;;8.90;4.88;;;11.30;99.90;;;;;;4910851;28;20450;-75
2023/05/31 02:30:59;;;;;;;6.80;4.15;;;11.20;99.90;;;;;;4892931;28;20048;-76
2023/05/31 02:33:26;;;;;;;8.55;4.70;;;11.20;99.90;;;;;;4922450;29;20117;-77
2023/05/31 02:35:52;;;;;;;8.55;4.95;;;11.30;99.90;;;;;;4926809;28;20074;-75
2023/05/31 02:38:19;;;;;;;8.13;4.57;;;11.20;99.90;;;;;;4925476;29;20134;-78
2023/05/31 02:40:46;;;;;;;7.68;4.53;;;11.10;99.90;;;;;;4925967;28;20070;-76
2023/05/31 02:43:11;;;;;;;11.05;5.38;;;11.20;99.90;;;;;;4893207;29;20051;-76
2023/05/31 02:45:37;;;;;;;9.00;5.28;;;11.20;99.90;;;;;;4924893;29;20051;-77
2023/05/31 02:48:05;;;;;;;10.70;5.13;;;11.20;99.90;;;;;;4909325;28;20158;-77
2023/05/31 02:50:31;;;;;;;31.60;5.35;;;11.10;99.90;;;;;;4927762;29;20138;-77
2023/05/31 02:52:57;;;;;;;33.60;4.47;;;11.10;99.90;;;;;;4913409;28;20046;-79
2023/05/31 02:55:22;;;;;;;10.40;4.95;;;11.10;99.90;;;;;;4943142;28;20039;-78
2023/05/31 02:57:48;;;;;;;7.35;4.47;;;11.20;99.90;;;;;;4897229;29;20107;-79
2023/05/31 03:00:14;;;;;;;7.25;4.85;;;11.20;99.90;;;;;;4895303;29;20048;-78
2023/05/31 03:02:40;;;;;;;10.02;4.93;;;11.10;99.90;;;;;;4897416;28;20039;-78
2023/05/31 03:05:10;;;;;;;59.42;4.82;;;11.10;99.90;;;;;;4939562;28;20048;-78
2023/05/31 03:07:39;;;;;;;40.33;4.10;;;11.20;99.90;;;;;;4924854;28;20094;-76
2023/05/31 03:10:06;;;;;;;43.45;4.65;;;11.10;99.90;;;;;;4923927;28;20062;-77
2023/05/31 03:12:33;;;;;;;82.72;5.05;;;11.10;99.90;;;;;;4899219;29;20048;-76
2023/05/31 03:14:59;;;;;;;61.95;3.88;;;11.10;99.90;;;;;;4907726;28;20032;-76
2023/05/31 03:17:24;;;;;;;60.70;4.65;;;11.00;99.90;;;;;;4913433;29;20043;-77
2023/05/31 03:19:50;;;;;;;102.85;4.80;;;11.20;99.90;;;;;;4935292;28;20104;-77
2023/05/31 03:22:16;;;;;;;38.75;5.18;;;11.00;99.90;;;;;;4916314;28;20502;-77
2023/05/31 03:24:42;;;;;;;37.30;4.13;;;11.00;99.90;;;;;;4873524;29;20042;-78
2023/05/31 03:27:08;;;;;;;11.93;4.30;;;11.10;99.90;;;;;;4926024;28;22016;-78
2023/05/31 03:29:38;;;;;;;10.90;5.32;;;11.10;99.90;;;;;;4912438;28;20044;-78
2023/05/31 03:32:04;;;;;;;8.85;4.70;;;11.10;99.90;;;;;;4905323;29;20078;-76
2023/05/31 03:34:29;;;;;;;8.70;4.93;;;11.20;99.90;;;;;;4887821;28;20088;-77
2023/05/31 03:36:55;;;;;;;9.00;4.82;;;11.30;99.90;;;;;;4930500;28;20047;-78
2023/05/31 03:39:21;;;;;;;10.50;5.03;;;11.20;99.90;;;;;;4878379;29;20040;-78
2023/05/31 03:41:46;;;;;;;11.95;5.50;;;11.20;99.90;;;;;;4904801;28;20075;-78
2023/05/31 03:44:12;;;;;;;9.30;5.45;;;11.30;99.90;;;;;;4905690;28;20503;-77
2023/05/31 03:46:38;;;;;;;11.93;5.55;;;11.40;99.90;;;;;;4912561;28;20031;-81
2023/05/31 03:49:05;;;;;;;8.38;5.10;;;11.50;99.90;;;;;;4918017;28;20105;-81
2023/05/31 03:51:31;;;;;;;11.27;5.53;;;11.40;99.90;;;;;;4878618;28;20151;-79
2023/05/31 03:53:57;;;;;;;11.55;5.90;;;11.50;99.90;;;;;;4907854;29;20097;-79
2023/05/31 03:56:23;;;;;;;9.90;5.03;;;11.40;99.90;;;;;;4944999;28;20044;-81
2023/05/31 03:58:48;;;;;;;9.02;5.18;;;11.40;99.90;;;;;;4930336;28;20046;-78
2023/05/31 04:01:15;;;;;;;10.60;5.57;;;11.50;99.90;;;;;;4893003;29;20040;-80
2023/05/31 04:03:41;;;;;;;10.93;5.00;;;11.60;99.90;;;;;;4923371;29;20051;-80
2023/05/31 04:06:07;;;;;;;7.68;4.78;;;11.70;99.90;;;;;;4904066;28;20047;-81
2023/05/31 04:08:32;;;;;;;10.85;4.68;;;11.60;99.90;;;;;;4909271;29;20078;-79
2023/05/31 04:10:58;;;;;;;7.82;4.32;;;11.70;99.90;;;;;;4937668;28;20600;-80
2023/05/31 04:13:24;;;;;;;6.97;4.25;;;11.50;99.90;;;;;;4907669;29;20644;-77
2023/05/31 04:15:49;;;;;;;7.07;4.38;;;11.60;99.90;;;;;;4894482;28;20074;-79
2023/05/31 04:18:16;;;;;;;5.15;3.80;;;11.60;99.90;;;;;;4932075;28;20038;-77
2023/05/31 04:20:41;;;;;;;7.07;4.50;;;11.70;99.90;;;;;;4946147;28;20047;-79
2023/05/31 04:23:07;;;;;;;8.52;5.20;;;11.60;99.90;;;;;;4926043;28;20517;-78
2023/05/31 04:25:33;;;;;;;8.07;4.57;;;11.80;99.90;;;;;;4895955;29;20040;-78
2023/05/31 04:27:58;;;;;;;10.07;5.43;;;11.70;99.90;;;;;;4925121;29;20126;-78
2023/05/31 04:30:24;;;;;;;8.90;5.40;;;11.80;99.90;;;;;;4969555;28;20131;-77
2023/05/31 04:32:52;;;;;;;9.27;5.65;;;11.90;99.90;;;;;;4908949;29;20055;-80
2023/05/31 04:35:18;;;;;;;9.98;5.28;;;12.10;99.90;;;;;;4928401;29;20048;-79
2023/05/31 04:37:44;;;;;;;10.55;5.32;;;12.00;99.90;;;;;;4916601;28;20052;-77
2023/05/31 04:40:11;;;;;;;11.23;5.88;;;12.20;99.90;;;;;;4895732;28;20035;-78
2023/05/31 04:42:37;;;;;;;9.88;6.28;;;12.10;99.90;;;;;;4910730;29;20042;-80
2023/05/31 04:45:04;;;;;;;11.27;5.43;;;12.30;99.90;;;;;;4913131;28;20046;-79
2023/05/31 04:47:35;;;;;;;10.98;6.53;;;12.30;99.90;;;;;;4895078;28;20083;-78
2023/05/31 04:50:01;;;;;;;10.95;5.88;;;12.60;99.90;;;;;;4955116;28;20081;-79
2023/05/31 04:52:32;;;;;;;14.07;5.85;;;12.40;99.90;;;;;;4919619;28;20034;-78
2023/05/31 04:55:01;;;;;;;13.00;5.38;;;12.80;99.90;;;;;;4931818;28;20056;-77
2023/05/31 04:57:29;;;;;;;13.27;5.68;;;12.70;99.90;;;;;;4938951;28;20047;-78
2023/05/31 04:59:58;;;;;;;12.00;6.10;;;13.00;99.90;;;;;;4905986;29;20631;-78
2023/05/31 05:02:24;;;;;;;10.57;6.47;;;13.10;99.90;;;;;;4906001;28;20044;-78
2023/05/31 05:04:50;;;;;;;14.25;6.95;;;13.30;99.90;;;;;;4893824;29;20542;-78
2023/05/31 05:07:16;;;;;;;13.13;7.07;;;13.10;99.90;;;;;;4920974;28;20047;-76
2023/05/31 05:09:42;;;;;;;13.48;6.82;;;13.30;99.90;;;;;;4956307;28;20047;-78
2023/05/31 05:12:09;;;;;;;13.10;7.30;;;13.80;99.90;;;;;;4889145;29;20078;-80
2023/05/31 05:14:35;;;;;;;19.30;8.13;;;13.50;99.90;;;;;;4928895;29;20089;-77
2023/05/31 05:17:00;;;;;;;13.90;7.70;;;13.80;99.90;;;;;;4898163;29;20070;-78
2023/05/31 05:19:26;;;;;;;14.18;8.20;;;13.80;99.90;;;;;;4911661;28;20060;-79
2023/05/31 05:21:52;;;;;;;14.95;8.02;;;14.00;99.90;;;;;;4927700;28;20051;-79
2023/05/31 05:24:17;;;;;;;17.08;8.27;;;14.20;99.90;;;;;;4908289;29;20115;-79
2023/05/31 05:26:44;;;;;;;13.88;7.50;;;13.90;99.90;;;;;;4911808;29;20050;-78
2023/05/31 05:29:10;;;;;;;12.20;7.70;;;14.00;99.90;;;;;;4953059;28;20055;-80
2023/05/31 05:31:36;;;;;;;16.35;7.90;;;14.20;99.90;;;;;;4947908;28;20046;-78
2023/05/31 05:34:02;;;;;;;11.73;7.38;;;14.60;99.90;;;;;;4930281;28;20488;-80
2023/05/31 05:36:27;;;;;;;13.60;7.57;;;14.30;99.90;;;;;;4908999;29;20133;-77
2023/05/31 05:38:55;;;;;;;15.52;7.40;;;14.70;99.90;;;;;;4946746;28;20039;-74
2023/05/31 05:41:21;;;;;;;14.07;7.60;;;14.70;99.90;;;;;;4911080;29;20048;-74
2023/05/31 05:43:46;;;;;;;15.05;7.22;;;14.60;99.90;;;;;;4912640;29;20040;-74
2023/05/31 05:46:12;;;;;;;14.63;8.40;;;14.90;99.90;;;;;;4925881;28;20048;-78
2023/05/31 05:48:38;;;;;;;17.42;7.57;;;15.10;99.90;;;;;;4916784;28;20051;-78
2023/05/31 05:51:04;;;;;;;16.02;7.03;;;15.10;99.90;;;;;;4897701;29;20151;-78
2023/05/31 05:53:29;;;;;;;13.32;6.53;;;15.30;99.90;;;;;;4949446;28;20105;-79
2023/05/31 05:55:55;;;;;;;11.40;6.15;;;15.30;99.90;;;;;;4933314;28;20039;-78
2023/05/31 05:58:21;;;;;;;12.20;5.78;;;15.40;99.90;;;;;;4901090;29;20048;-76
2023/05/31 06:00:48;;;;;;;11.48;6.32;;;15.50;99.90;;;;;;4934100;28;20044;-78
2023/05/31 06:03:15;;;;;;;12.35;5.82;;;15.60;99.90;;;;;;4907060;28;20052;-78
2023/05/31 06:05:44;;;;;;;10.45;6.25;;;15.80;99.90;;;;;;4924105;28;20048;-75
2023/05/31 06:08:11;;;;;;;10.20;6.15;;;15.70;99.90;;;;;;4927520;29;20094;-77
2023/05/31 06:10:40;;;;;;;14.18;6.45;;;15.70;99.90;;;;;;4900952;28;20412;-78
2023/05/31 06:13:06;;;;;;;12.50;5.57;;;15.70;99.90;;;;;;4906643;28;20044;-77
2023/05/31 06:15:32;;;;;;;11.85;6.38;;;16.10;99.90;;;;;;4925228;28;20044;-78
2023/05/31 06:17:58;;;;;;;10.23;5.93;;;16.10;99.90;;;;;;4907201;29;20052;-78
2023/05/31 06:20:25;;;;;;;11.48;5.55;;;16.30;99.90;;;;;;4912451;29;20048;-76
2023/05/31 06:22:51;;;;;;;11.80;5.95;;;16.70;99.90;;;;;;4909586;28;20066;-78
2023/05/31 06:25:17;;;;;;;11.02;5.32;;;16.50;99.90;;;;;;4963268;28;20052;-78
2023/05/31 06:27:45;;;;;;;10.52;5.47;;;16.70;99.90;;;;;;4915839;28;20043;-76
2023/05/31 06:30:15;;;;;;;10.13;5.15;;;16.70;99.90;;;;;;4910117;29;20487;-77
2023/05/31 06:32:40;;;;;;;9.02;4.55;;;17.10;99.90;;;;;;4916227;28;20156;-78
2023/05/31 06:35:06;;;;;;;8.90;4.63;;;17.20;99.90;;;;;;4893865;29;20196;-78
2023/05/31 06:37:32;;;;;;;8.48;4.75;;;17.10;99.90;;;;;;4894937;28;20051;-79
2023/05/31 06:39:58;;;;;;;9.98;4.38;;;17.70;99.90;;;;;;4899242;28;20059;-78
2023/05/31 06:42:24;;;;;;;8.90;4.68;;;17.50;99.90;;;;;;4911866;29;20081;-79
2023/05/31 06:44:51;;;;;;;9.07;4.65;;;18.00;99.90;;;;;;4910613;28;20047;-69
2023/05/31 06:47:22;;;;;;;7.85;4.18;;;18.30;99.90;;;;;;4906601;28;20056;-80
2023/05/31 06:49:48;;;;;;;8.85;3.97;;;18.50;99.90;;;;;;4893705;28;20109;-79
2023/05/31 06:52:14;;;;;;;10.30;3.78;;;18.30;99.90;;;;;;4904833;28;20040;-75
2023/05/31 06:54:42;;;;;;;8.35;3.30;;;18.50;99.90;;;;;;4913810;29;20051;-75
2023/05/31 06:57:08;;;;;;;8.93;3.22;;;18.80;99.90;;;;;;4893610;28;20051;-75
2023/05/31 06:59:34;;;;;;;6.22;3.38;;;18.90;99.90;;;;;;4918747;29;20039;-78
2023/05/31 07:02:00;;;;;;;5.10;2.80;;;19.00;99.90;;;;;;4947311;28;20102;-80
2023/05/31 07:04:25;;;;;;;5.15;2.60;;;18.90;99.90;;;;;;4913029;29;20032;-80
2023/05/31 07:06:51;;;;;;;4.95;2.50;;;19.20;99.90;;;;;;4920316;28;20071;-77
2023/05/31 07:09:17;;;;;;;5.75;2.92;;;19.20;99.90;;;;;;4912312;28;20039;-78
2023/05/31 07:11:43;;;;;;;7.55;2.40;;;19.70;99.90;;;;;;4912111;28;20048;-79
2023/05/31 07:14:11;;;;;;;3.95;1.90;;;19.70;99.90;;;;;;4895728;28;20041;-78
2023/05/31 07:16:37;;;;;;;4.32;2.25;;;19.30;99.90;;;;;;4893512;28;20044;-78
2023/05/31 07:19:03;;;;;;;7.40;1.80;;;19.40;99.90;;;;;;4910607;28;20101;-75
2023/05/31 07:21:28;;;;;;;3.78;2.10;;;19.50;99.90;;;;;;4904771;28;20122;-77
2023/05/31 07:23:55;;;;;;;6.03;2.17;;;20.10;99.90;;;;;;4923660;28;20496;-77
2023/05/31 07:26:22;;;;;;;5.85;2.15;;;19.90;99.90;;;;;;4927085;29;20372;-76
2023/05/31 07:28:47;;;;;;;5.25;1.98;;;20.00;99.90;;;;;;4905663;29;20127;-77
2023/05/31 07:31:16;;;;;;;4.75;2.13;;;20.10;99.90;;;;;;4940044;28;20153;-78
2023/05/31 07:33:42;;;;;;;3.28;1.50;;;20.00;99.90;;;;;;4944959;28;20055;-75
2023/05/31 07:36:08;;;;;;;3.67;1.80;;;19.60;99.90;;;;;;4969927;28;20043;-77
2023/05/31 07:38:34;;;;;;;5.75;1.73;;;20.00;99.90;;;;;;4976287;28;20373;-74
2023/05/31 07:41:00;;;;;;;7.22;1.80;;;19.90;99.90;;;;;;4923403;28;20060;-74
2023/05/31 07:43:26;;;;;;;4.35;1.70;;;19.80;99.90;;;;;;4910010;29;20071;-76
2023/05/31 07:45:55;;;;;;;3.42;1.63;;;20.20;99.90;;;;;;4905197;28;20046;-77
2023/05/31 07:48:21;;;;;;;2.92;1.75;;;20.10;99.90;;;;;;4931116;28;20047;-78
2023/05/31 07:50:50;;;;;;;6.50;2.30;;;20.50;99.90;;;;;;4897099;29;20047;-76
2023/05/31 07:53:16;;;;;;;3.10;1.60;;;20.50;99.90;;;;;;4959076;28;20042;-74
2023/05/31 07:55:43;;;;;;;4.10;1.50;;;20.50;99.90;;;;;;4913779;28;20043;-78
2023/05/31 07:58:12;;;;;;;3.08;1.55;;;20.70;99.90;;;;;;4929439;29;20421;-76
2023/05/31 08:00:39;;;;;;;3.90;1.98;;;20.50;99.90;;;;;;4927951;29;20063;-77
2023/05/31 08:03:05;;;;;;;4.32;2.22;;;20.70;99.90;;;;;;4913628;29;20044;-79
2023/05/31 08:05:32;;;;;;;4.82;2.25;;;20.30;99.90;;;;;;4897098;29;20047;-75
2023/05/31 08:07:59;;;;;;;6.55;1.90;;;20.60;99.90;;;;;;4909856;29;20584;-78
2023/05/31 08:10:25;;;;;;;7.18;2.33;;;20.80;99.90;;;;;;4949266;28;20547;-76
2023/05/31 08:12:51;;;;;;;2.85;1.75;;;21.00;99.90;;;;;;4883966;29;20067;-77
2023/05/31 08:15:17;;;;;;;8.77;2.70;;;21.20;99.90;;;;;;4921167;28;20058;-76
2023/05/31 08:17:43;;;;;;;6.55;2.38;;;20.70;99.90;;;;;;4912625;28;20046;-81
2023/05/31 08:20:16;;;;;;;6.10;2.58;;;20.70;99.90;;;;;;4894821;29;20036;-75
2023/05/31 08:22:49;;;;;;;3.97;2.03;;;20.90;99.90;;;;;;4888881;29;20067;-73
2023/05/31 08:25:16;;;;;;;4.53;2.00;;;21.20;99.90;;;;;;4924867;28;20050;-75
2023/05/31 08:27:43;;;;;;;4.10;2.00;;;21.20;99.90;;;;;;4938527;29;20054;-75
2023/05/31 08:30:17;;;;;;;7.63;2.50;;;21.20;99.90;;;;;;4918428;28;20078;-75
2023/05/31 08:32:46;;;;;;;9.40;2.05;;;21.70;99.90;;;;;;4895903;29;20110;-74
2023/05/31 08:35:12;;;;;;;3.28;1.90;;;21.70;99.90;;;;;;4915344;28;20040;-78
2023/05/31 08:37:38;;;;;;;6.15;2.35;;;21.70;99.90;;;;;;4916429;28;20035;-75
2023/05/31 08:40:05;;;;;;;5.97;2.13;;;21.50;99.90;;;;;;4896577;28;20118;-75
2023/05/31 08:42:43;;;;;;;7.07;2.85;;;21.70;99.90;;;;;;4914092;28;20052;-77
2023/05/31 08:45:10;;;;;;;6.72;2.42;;;21.70;99.90;;;;;;4928622;29;20047;-74
2023/05/31 08:47:51;;;;;;;6.32;2.40;;;21.50;99.90;;;;;;4933692;28;20052;-74
2023/05/31 08:50:18;;;;;;;5.30;2.45;;;21.30;99.90;;;;;;4906191;29;20048;-74
2023/05/31 08:52:45;;;;;;;6.63;2.72;;;21.00;99.90;;;;;;4892591;29;20044;-76
2023/05/31 08:55:12;;;;;;;6.45;2.88;;;21.00;99.90;;;;;;4927718;29;20048;-76
2023/05/31 08:57:41;;;;;;;4.47;2.13;;;21.10;99.90;;;;;;4927071;29;20083;-78
2023/05/31 09:00:11;;;;;;;8.65;3.05;;;20.70;99.90;;;;;;4908760;29;20051;-79
2023/05/31 09:02:41;;;;;;;5.63;2.63;;;21.20;99.90;;;;;;4940169;28;20097;-75
2023/05/31 09:05:10;;;;;;;6.13;2.70;;;21.20;99.90;;;;;;4938151;28;20393;-77
2023/05/31 09:07:39;;;;;;;8.27;3.20;;;21.20;99.90;;;;;;4910696;29;20093;-76
2023/05/31 09:10:08;;;;;;;5.30;3.30;;;21.30;99.90;;;;;;4923773;29;20105;-76
2023/05/31 09:12:35;;;;;;;6.50;2.60;;;21.80;99.90;;;;;;4904050;28;20476;-76
2023/05/31 09:15:02;;;;;;;6.28;3.03;;;22.60;99.90;;;;;;4878333;28;20396;-78
2023/05/31 09:17:28;;;;;;;7.85;3.50;;;21.40;99.90;;;;;;4911648;28;20127;-80
2023/05/31 09:19:55;;;;;;;8.65;3.45;;;21.50;99.90;;;;;;4940573;28;20115;-76
2023/05/31 09:22:24;;;;;;;9.15;3.50;;;21.80;99.90;;;;;;4934455;28;20098;-76
2023/05/31 09:24:57;;;;;;;8.15;3.42;;;21.70;99.90;;;;;;4926989;29;20047;-76
2023/05/31 09:27:24;;;;;;;13.02;4.05;;;22.30;99.90;;;;;;4925098;29;20040;-75
2023/05/31 09:29:53;;;;;;;8.00;3.60;;;22.10;99.90;;;;;;4960245;28;20578;-76
2023/05/31 09:32:19;;;;;;;7.28;3.40;;;22.20;99.90;;;;;;4955476;28;20044;-76
2023/05/31 09:34:46;;;;;;;6.55;3.45;;;22.00;99.90;;;;;;4929460;28;20044;-77
2023/05/31 09:37:23;;;;;;;7.13;3.67;;;22.20;99.90;;;;;;4905916;29;20086;-75
2023/05/31 09:39:58;;;;;;;8.85;3.28;;;21.60;99.90;;;;;;4937286;28;20058;-75
2023/05/31 09:42:28;;;;;;;10.70;3.53;;;21.50;99.90;;;;;;4963625;28;20556;-76
2023/05/31 09:44:54;;;;;;;6.00;3.65;;;22.00;99.90;;;;;;4877625;28;20043;-75
2023/05/31 09:47:25;;;;;;;7.18;3.83;;;22.50;99.90;;;;;;4894723;28;20071;-76
2023/05/31 09:49:53;;;;;;;6.80;4.22;;;21.60;99.90;;;;;;4925988;29;20059;-77
2023/05/31 09:52:26;;;;;;;6.25;3.67;;;22.20;99.90;;;;;;4912854;28;20039;-76
2023/05/31 09:54:51;;;;;;;6.72;3.40;;;22.70;99.90;;;;;;4929515;28;20472;-74
2023/05/31 09:57:40;;;;;;;4.80;3.70;;;22.90;99.90;;;;;;4923049;28;20040;-78
2023/05/31 10:00:12;;;;;;;9.32;3.90;;;23.30;99.90;;;;;;4945490;28;20047;-75
2023/05/31 10:02:38;;;;;;;6.40;3.70;;;23.60;99.90;;;;;;4923504;28;20048;-76
2023/05/31 10:05:05;;;;;;;5.88;3.40;;;23.30;99.90;;;;;;4925086;28;20047;-75
2023/05/31 10:07:32;;;;;;;5.72;3.90;;;23.40;99.90;;;;;;4921812;29;20071;-79
2023/05/31 10:09:57;;;;;;;6.18;3.92;;;23.10;99.90;;;;;;4924232;29;20040;-74
2023/05/31 10:12:26;;;;;;;7.80;3.72;;;23.10;99.90;;;;;;4911258;29;20038;-74
2023/05/31 10:14:59;;;;;;;4.60;3.42;;;23.30;99.90;;;;;;4928389;28;20059;-77
2023/05/31 10:17:28;;;;;;;5.25;3.85;;;23.40;99.90;;;;;;4933117;28;20708;-77
2023/05/31 10:19:59;;;;;;;11.15;4.20;;;23.30;99.90;;;;;;4927653;28;20403;-75
2023/05/31 10:22:29;;;;;;;5.60;3.90;;;23.00;99.90;;;;;;4920228;28;20048;-77
2023/05/31 10:25:09;;;;;;;6.50;4.03;;;23.30;99.90;;;;;;4950964;28;20067;-75
2023/05/31 10:27:38;;;;;;;6.30;3.63;;;23.60;99.90;;;;;;4912823;29;20052;-74
2023/05/31 10:30:05;;;;;;;5.75;3.63;;;23.60;99.90;;;;;;4956799;28;20103;-74
2023/05/31 10:32:43;;;;;;;7.05;3.88;;;23.50;99.90;;;;;;4935430;28;20044;-78
2023/05/31 10:35:10;;;;;;;7.70;3.97;;;23.70;99.90;;;;;;4903034;29;20051;-74
2023/05/31 10:37:41;;;;;;;6.95;3.40;;;23.10;99.90;;;;;;4928375;29;20056;-73
2023/05/31 10:40:19;;;;;;;5.70;3.30;;;23.00;99.90;;;;;;4935734;28;20096;-76
2023/05/31 10:43:08;;;;;;;7.38;3.75;;;22.90;99.90;;;;;;4913594;28;20758;-75
2023/05/31 10:45:51;;;;;;;11.27;3.47;;;23.30;99.90;;;;;;4945947;28;20036;-76
2023/05/31 10:48:29;;;;;;;7.65;3.50;;;23.00;99.90;;;;;;4915555;29;20048;-78
2023/05/31 10:51:00;;;;;;;8.13;4.38;;;23.30;99.90;;;;;;4909350;28;20142;-75
2023/05/31 10:53:36;;;;;;;6.22;3.45;;;23.00;99.90;;;;;;4913209;29;20055;-77
2023/05/31 10:56:10;;;;;;;7.82;4.00;;;23.00;99.90;;;;;;4912080;29;20427;-78
2023/05/31 10:58:37;;;;;;;6.28;3.10;;;23.20;99.90;;;;;;4909357;28;20055;-75
2023/05/31 11:01:06;;;;;;;6.60;3.60;;;23.50;99.90;;;;;;4928604;29;20047;-77
2023/05/31 11:03:42;;;;;;;4.57;3.22;;;23.80;99.90;;;;;;4913523;29;20429;-77
2023/05/31 11:06:09;;;;;;;4.78;3.30;;;23.40;99.90;;;;;;4938315;28;20043;-73
2023/05/31 11:08:35;;;;;;;5.10;3.33;;;23.90;99.90;;;;;;4986188;28;20049;-73
2023/05/31 11:11:32;;;;;;;9.48;4.05;;;23.50;99.90;;;;;;4942218;28;20054;-79
2023/05/31 11:14:06;;;;;;;5.10;3.60;;;23.30;99.90;;;;;;4929400;29;20044;-76
2023/05/31 11:16:33;;;;;;;5.13;3.33;;;23.40;99.90;;;;;;4908481;28;20125;-76
2023/05/31 11:19:07;;;;;;;4.20;3.30;;;23.90;99.90;;;;;;4929155;29;20137;-77
2023/05/31 11:21:52;;;;;;;;;;;23.70;99.90;;;;;;4913240;29;20043;-76
2023/05/31 11:24:26;;;;;;;3.95;3.00;;;24.00;99.90;;;;;;4904588;29;20026;-77
2023/05/31 11:26:53;;;;;;;5.38;3.05;;;24.10;99.90;;;;;;4927182;29;20044;-80
2023/05/31 11:29:19;;;;;;;4.28;3.10;;;24.00;99.90;;;;;;4914336;28;20051;-79
2023/05/31 11:31:51;;;;;;;3.30;2.53;;;23.20;99.90;;;;;;4912484;28;20046;-79
2023/05/31 11:34:33;;;;;;;5.70;3.10;;;23.70;99.90;;;;;;4942317;28;20684;-78
2023/05/31 11:37:01;;;;;;;4.85;2.70;;;24.00;99.90;;;;;;4907829;29;20051;-79
2023/05/31 11:39:27;;;;;;;5.38;2.45;;;24.00;99.90;;;;;;4911765;29;20035;-79
2023/05/31 11:41:57;;;;;;;5.93;3.00;;;24.00;99.90;;;;;;4926013;28;20073;-79
2023/05/31 11:44:29;;;;;;;4.95;2.72;;;24.00;99.90;;;;;;4942698;28;20043;-79
2023/05/31 11:47:04;;;;;;;3.42;2.35;;;24.40;99.90;;;;;;4928554;28;20034;-77
2023/05/31 11:49:31;;;;;;;5.72;3.10;;;24.30;99.90;;;;;;4897959;28;20040;-81
2023/05/31 11:51:57;;;;;;;5.38;2.85;;;23.60;99.90;;;;;;4896993;29;20106;-78
2023/05/31 11:54:30;;;;;;;6.25;2.65;;;23.90;99.90;;;;;;4903871;28;20082;-78
2023/05/31 11:57:06;;;;;;;5.28;3.05;;;23.50;99.90;;;;;;4926403;29;20039;-78
2023/05/31 11:59:33;;;;;;;4.57;2.70;;;22.90;99.90;;;;;;4937857;28;20581;-81
2023/05/31 12:02:00;;;;;;;6.70;2.78;;;23.20;99.90;;;;;;4903089;28;20045;-78
2023/05/31 12:04:44;;;;;;;5.78;2.90;;;22.90;99.90;;;;;;4892432;28;20074;-77
2023/05/31 12:07:12;;;;;;;5.07;2.40;;;23.70;99.90;;;;;;4958722;28;20045;-81
2023/05/31 12:09:38;;;;;;;4.05;2.45;;;23.30;99.90;;;;;;4911744;29;20482;-79
2023/05/31 12:12:07;;;;;;;5.22;2.85;;;23.50;99.90;;;;;;4904235;29;20044;-80
2023/05/31 12:14:34;;;;;;;5.57;3.13;;;23.90;99.90;;;;;;4925187;28;20051;-81
2023/05/31 12:17:06;;;;;;;7.93;3.10;;;23.00;99.90;;;;;;4896589;29;20055;-81
2023/05/31 12:19:32;;;;;;;5.65;3.03;;;22.80;99.90;;;;;;4919001;28;20065;-80
2023/05/31 12:21:58;;;;;;;3.92;3.08;;;24.00;99.90;;;;;;4921231;28;20624;-78
2023/05/31 12:24:24;;;;;;;4.82;2.85;;;24.30;99.90;;;;;;4928019;28;20040;-76
2023/05/31 12:26:51;;;;;;;7.97;3.35;;;23.90;99.90;;;;;;4885370;29;20131;-78
2023/05/31 12:29:17;;;;;;;9.63;2.88;;;23.10;99.90;;;;;;4925821;28;20066;-77
2023/05/31 12:31:43;;;;;;;5.72;4.13;;;23.60;99.90;;;;;;4954572;28;20037;-76
2023/05/31 12:34:10;;;;;;;7.57;3.47;;;23.40;99.90;;;;;;4924179;29;20067;-79
2023/05/31 12:36:54;;;;;;;7.00;3.38;;;23.80;99.90;;;;;;4966192;28;20120;-76
2023/05/31 12:39:22;;;;;;;7.13;4.57;;;22.90;99.90;;;;;;4908274;28;20592;-77
2023/05/31 12:41:51;;;;;;;5.90;4.38;;;23.50;99.90;;;;;;4913497;28;20043;-77
2023/05/31 12:44:21;;;;;;;7.22;3.63;;;23.20;99.90;;;;;;4926346;28;20046;-76
2023/05/31 12:46:51;;;;;;;4.05;3.47;;;24.00;99.90;;;;;;4894576;29;20036;-78
2023/05/31 12:49:26;;;;;;;5.65;3.55;;;24.50;99.90;;;;;;4910672;28;20075;-75